sensor_id;sensor_type;location;lat;lon;timestamp;P1;durP1;ratioP1;P2;durP2;ratioP2
33810;SDS011;20119;48.334;16.206;2024-01-15T00:15:04;30.13;;;17.88;;
33810;SDS011;20119;48.334;16.206;2024-01-15T00:17:31;27.73;;;15.95;;
33810;SDS011;20119;48.334;16.206;2024-01-15T00:22:34;27.42;;;15.52;;
33810;SDS011;20119;48.334;16.206;2024-01-15T00:25:02;27.88;;;16.75;;
33810;SDS011;20119;48.334;16.206;2024-01-15T00:27:29;30.17;;;16.67;;
33810;SDS011;20119;48.334;16.206;2024-01-15T00:29:56;28.77;;;16.10;;
33810;SDS011;20119;48.334;16.206;2024-01-15T00:32:25;28.48;;;17.25;;
33810;SDS011;20119;48.334;16.206;2024-01-15T00:34:53;31.08;;;17.42;;
33810;SDS011;20119;48.334;16.206;2024-01-15T00:37:20;30.95;;;18.73;;
33810;SDS011;20119;48.334;16.206;2024-01-15T00:39:48;31.75;;;18.48;;
33810;SDS011;20119;48.334;16.206;2024-01-15T00:42:15;29.63;;;18.85;;
33810;SDS011;20119;48.334;16.206;2024-01-15T00:44:42;30.33;;;18.13;;
33810;SDS011;20119;48.334;16.206;2024-01-15T00:47:10;29.13;;;18.15;;
33810;SDS011;20119;48.334;16.206;2024-01-15T00:52:14;29.08;;;16.52;;
33810;SDS011;20119;48.334;16.206;2024-01-15T00:57:17;28.73;;;16.75;;
33810;SDS011;20119;48.334;16.206;2024-01-15T00:59:45;32.97;;;17.83;;
33810;SDS011;20119;48.334;16.206;2024-01-15T01:02:12;31.77;;;18.38;;
33810;SDS011;20119;48.334;16.206;2024-01-15T01:07:17;33.60;;;18.17;;
33810;SDS011;20119;48.334;16.206;2024-01-15T01:12:20;33.58;;;19.70;;
33810;SDS011;20119;48.334;16.206;2024-01-15T01:14:47;39.30;;;21.75;;
33810;SDS011;20119;48.334;16.206;2024-01-15T01:22:28;44.70;;;25.77;;
33810;SDS011;20119;48.334;16.206;2024-01-15T01:24:55;49.05;;;26.27;;
33810;SDS011;20119;48.334;16.206;2024-01-15T01:27:22;46.15;;;26.63;;
33810;SDS011;20119;48.334;16.206;2024-01-15T01:29:49;48.13;;;26.95;;
33810;SDS011;20119;48.334;16.206;2024-01-15T01:32:17;45.60;;;26.67;;
33810;SDS011;20119;48.334;16.206;2024-01-15T01:34:44;50.38;;;26.80;;
33810;SDS011;20119;48.334;16.206;2024-01-15T01:37:11;45.35;;;25.83;;
33810;SDS011;20119;48.334;16.206;2024-01-15T01:39:40;46.15;;;26.30;;
33810;SDS011;20119;48.334;16.206;2024-01-15T01:42:08;47.03;;;25.80;;
33810;SDS011;20119;48.334;16.206;2024-01-15T01:44:35;48.00;;;25.85;;
33810;SDS011;20119;48.334;16.206;2024-01-15T01:47:03;46.60;;;26.02;;
33810;SDS011;20119;48.334;16.206;2024-01-15T01:49:31;51.75;;;26.83;;
33810;SDS011;20119;48.334;16.206;2024-01-15T01:52:01;48.28;;;26.80;;
33810;SDS011;20119;48.334;16.206;2024-01-15T01:54:29;45.28;;;26.23;;
33810;SDS011;20119;48.334;16.206;2024-01-15T01:56:57;42.92;;;25.33;;
33810;SDS011;20119;48.334;16.206;2024-01-15T01:59:25;48.20;;;26.60;;
33810;SDS011;20119;48.334;16.206;2024-01-15T02:20:18;44.80;;;24.73;;
33810;SDS011;20119;48.334;16.206;2024-01-15T02:22:45;40.88;;;23.38;;
33810;SDS011;20119;48.334;16.206;2024-01-15T02:25:14;38.78;;;23.35;;
33810;SDS011;20119;48.334;16.206;2024-01-15T02:27:41;40.25;;;23.75;;
33810;SDS011;20119;48.334;16.206;2024-01-15T02:45:46;42.25;;;23.10;;
33810;SDS011;20119;48.334;16.206;2024-01-15T02:48:13;41.05;;;23.75;;
33810;SDS011;20119;48.334;16.206;2024-01-15T02:50:40;40.72;;;22.85;;
33810;SDS011;20119;48.334;16.206;2024-01-15T02:53:08;42.10;;;24.88;;
33810;SDS011;20119;48.334;16.206;2024-01-15T02:55:35;40.45;;;23.95;;
33810;SDS011;20119;48.334;16.206;2024-01-15T02:58:03;41.35;;;24.25;;
33810;SDS011;20119;48.334;16.206;2024-01-15T03:00:30;44.22;;;26.20;;
33810;SDS011;20119;48.334;16.206;2024-01-15T03:02:59;48.83;;;25.80;;
33810;SDS011;20119;48.334;16.206;2024-01-15T03:05:26;46.97;;;26.50;;
33810;SDS011;20119;48.334;16.206;2024-01-15T03:07:54;46.28;;;26.83;;
33810;SDS011;20119;48.334;16.206;2024-01-15T03:10:21;47.20;;;27.60;;
33810;SDS011;20119;48.334;16.206;2024-01-15T03:12:49;51.08;;;26.58;;
33810;SDS011;20119;48.334;16.206;2024-01-15T03:15:16;50.80;;;28.83;;
33810;SDS011;20119;48.334;16.206;2024-01-15T03:17:44;49.70;;;27.00;;
33810;SDS011;20119;48.334;16.206;2024-01-15T03:20:13;47.00;;;27.23;;
33810;SDS011;20119;48.334;16.206;2024-01-15T03:22:40;46.38;;;27.38;;
33810;SDS011;20119;48.334;16.206;2024-01-15T03:25:08;47.47;;;27.17;;
33810;SDS011;20119;48.334;16.206;2024-01-15T03:30:17;44.67;;;24.10;;
33810;SDS011;20119;48.334;16.206;2024-01-15T03:32:45;43.38;;;25.27;;
33810;SDS011;20119;48.334;16.206;2024-01-15T03:35:14;43.40;;;24.05;;
33810;SDS011;20119;48.334;16.206;2024-01-15T03:37:41;41.78;;;24.05;;
33810;SDS011;20119;48.334;16.206;2024-01-15T03:40:09;41.47;;;23.60;;
33810;SDS011;20119;48.334;16.206;2024-01-15T03:42:36;42.60;;;24.48;;
33810;SDS011;20119;48.334;16.206;2024-01-15T03:45:04;41.00;;;23.73;;
33810;SDS011;20119;48.334;16.206;2024-01-15T03:47:31;41.58;;;23.70;;
33810;SDS011;20119;48.334;16.206;2024-01-15T03:49:59;42.08;;;24.45;;
33810;SDS011;20119;48.334;16.206;2024-01-15T03:52:27;40.80;;;23.90;;
33810;SDS011;20119;48.334;16.206;2024-01-15T03:54:55;41.22;;;22.88;;
33810;SDS011;20119;48.334;16.206;2024-01-15T03:57:22;40.38;;;23.13;;
33810;SDS011;20119;48.334;16.206;2024-01-15T03:59:49;42.30;;;23.58;;
33810;SDS011;20119;48.334;16.206;2024-01-15T04:02:16;41.92;;;24.75;;
33810;SDS011;20119;48.334;16.206;2024-01-15T04:04:44;45.75;;;26.77;;
33810;SDS011;20119;48.334;16.206;2024-01-15T04:07:11;43.78;;;25.40;;
33810;SDS011;20119;48.334;16.206;2024-01-15T04:09:40;45.75;;;25.67;;
33810;SDS011;20119;48.334;16.206;2024-01-15T04:12:07;43.55;;;24.98;;
33810;SDS011;20119;48.334;16.206;2024-01-15T04:14:35;46.03;;;26.85;;
33810;SDS011;20119;48.334;16.206;2024-01-15T04:17:02;48.95;;;27.33;;
33810;SDS011;20119;48.334;16.206;2024-01-15T04:19:30;50.22;;;28.17;;
33810;SDS011;20119;48.334;16.206;2024-01-15T04:24:31;48.58;;;27.10;;
33810;SDS011;20119;48.334;16.206;2024-01-15T04:27:00;49.15;;;27.73;;
33810;SDS011;20119;48.334;16.206;2024-01-15T04:29:27;47.55;;;26.20;;
33810;SDS011;20119;48.334;16.206;2024-01-15T04:31:54;46.60;;;26.55;;
33810;SDS011;20119;48.334;16.206;2024-01-15T04:34:21;43.80;;;25.42;;
33810;SDS011;20119;48.334;16.206;2024-01-15T04:39:17;43.70;;;25.08;;
33810;SDS011;20119;48.334;16.206;2024-01-15T04:41:44;41.17;;;24.30;;
33810;SDS011;20119;48.334;16.206;2024-01-15T04:44:13;39.58;;;24.13;;
33810;SDS011;20119;48.334;16.206;2024-01-15T04:46:40;41.15;;;23.77;;
33810;SDS011;20119;48.334;16.206;2024-01-15T04:49:08;41.45;;;24.10;;
33810;SDS011;20119;48.334;16.206;2024-01-15T04:54:12;39.13;;;23.63;;
33810;SDS011;20119;48.334;16.206;2024-01-15T04:59:19;40.42;;;24.20;;
33810;SDS011;20119;48.334;16.206;2024-01-15T05:01:47;40.83;;;24.90;;
33810;SDS011;20119;48.334;16.206;2024-01-15T05:04:15;40.28;;;24.02;;
33810;SDS011;20119;48.334;16.206;2024-01-15T05:06:42;43.17;;;24.52;;
33810;SDS011;20119;48.334;16.206;2024-01-15T05:09:09;39.15;;;22.60;;
33810;SDS011;20119;48.334;16.206;2024-01-15T05:11:38;42.47;;;25.00;;
33810;SDS011;20119;48.334;16.206;2024-01-15T05:14:05;41.30;;;25.10;;
33810;SDS011;20119;48.334;16.206;2024-01-15T05:16:34;47.42;;;25.58;;
33810;SDS011;20119;48.334;16.206;2024-01-15T05:19:01;45.35;;;25.38;;
33810;SDS011;20119;48.334;16.206;2024-01-15T05:21:29;45.67;;;25.55;;
33810;SDS011;20119;48.334;16.206;2024-01-15T05:23:56;43.65;;;25.02;;
33810;SDS011;20119;48.334;16.206;2024-01-15T05:26:23;39.67;;;23.35;;
33810;SDS011;20119;48.334;16.206;2024-01-15T05:28:52;41.20;;;24.85;;
33810;SDS011;20119;48.334;16.206;2024-01-15T05:31:19;39.90;;;25.05;;
33810;SDS011;20119;48.334;16.206;2024-01-15T05:36:24;42.22;;;24.42;;
33810;SDS011;20119;48.334;16.206;2024-01-15T05:38:51;42.28;;;25.10;;
33810;SDS011;20119;48.334;16.206;2024-01-15T05:41:18;39.85;;;24.70;;
33810;SDS011;20119;48.334;16.206;2024-01-15T05:48:57;39.00;;;23.25;;
33810;SDS011;20119;48.334;16.206;2024-01-15T05:56:45;39.05;;;23.48;;
33810;SDS011;20119;48.334;16.206;2024-01-15T06:07:29;37.30;;;22.17;;
33810;SDS011;20119;48.334;16.206;2024-01-15T06:09:56;36.80;;;23.10;;
33810;SDS011;20119;48.334;16.206;2024-01-15T06:12:25;38.35;;;21.60;;
33810;SDS011;20119;48.334;16.206;2024-01-15T06:14:53;34.83;;;21.67;;
33810;SDS011;20119;48.334;16.206;2024-01-15T06:17:20;36.90;;;21.67;;
33810;SDS011;20119;48.334;16.206;2024-01-15T06:19:47;34.30;;;20.55;;
33810;SDS011;20119;48.334;16.206;2024-01-15T06:35:32;28.50;;;16.10;;
33810;SDS011;20119;48.334;16.206;2024-01-15T06:38:00;26.35;;;17.08;;
33810;SDS011;20119;48.334;16.206;2024-01-15T06:40:28;28.13;;;17.95;;
33810;SDS011;20119;48.334;16.206;2024-01-15T06:45:30;31.48;;;19.45;;
33810;SDS011;20119;48.334;16.206;2024-01-15T06:47:58;30.65;;;18.60;;
33810;SDS011;20119;48.334;16.206;2024-01-15T06:50:25;34.33;;;19.90;;
33810;SDS011;20119;48.334;16.206;2024-01-15T06:52:53;34.00;;;20.60;;
33810;SDS011;20119;48.334;16.206;2024-01-15T06:55:21;34.85;;;20.48;;
33810;SDS011;20119;48.334;16.206;2024-01-15T07:00:24;36.42;;;22.02;;
33810;SDS011;20119;48.334;16.206;2024-01-15T07:08:01;35.67;;;21.42;;
33810;SDS011;20119;48.334;16.206;2024-01-15T07:10:29;37.47;;;22.05;;
33810;SDS011;20119;48.334;16.206;2024-01-15T07:12:56;37.47;;;22.45;;
33810;SDS011;20119;48.334;16.206;2024-01-15T07:15:24;36.80;;;22.08;;
33810;SDS011;20119;48.334;16.206;2024-01-15T07:17:51;37.17;;;21.58;;
33810;SDS011;20119;48.334;16.206;2024-01-15T07:20:18;31.27;;;19.98;;
33810;SDS011;20119;48.334;16.206;2024-01-15T07:33:10;33.35;;;20.20;;
33810;SDS011;20119;48.334;16.206;2024-01-15T07:43:25;28.55;;;17.88;;
33810;SDS011;20119;48.334;16.206;2024-01-15T07:45:53;25.98;;;17.10;;
33810;SDS011;20119;48.334;16.206;2024-01-15T07:48:21;27.65;;;17.10;;
33810;SDS011;20119;48.334;16.206;2024-01-15T07:50:48;27.70;;;16.90;;
33810;SDS011;20119;48.334;16.206;2024-01-15T07:53:16;27.02;;;17.00;;
33810;SDS011;20119;48.334;16.206;2024-01-15T07:58:19;25.15;;;15.40;;
33810;SDS011;20119;48.334;16.206;2024-01-15T08:00:46;28.48;;;16.83;;
33810;SDS011;20119;48.334;16.206;2024-01-15T08:03:13;29.08;;;17.30;;
33810;SDS011;20119;48.334;16.206;2024-01-15T08:10:54;30.35;;;17.42;;
33810;SDS011;20119;48.334;16.206;2024-01-15T08:13:21;27.55;;;17.63;;
33810;SDS011;20119;48.334;16.206;2024-01-15T08:28:49;34.35;;;17.77;;
33810;SDS011;20119;48.334;16.206;2024-01-15T08:31:16;26.73;;;16.90;;
33810;SDS011;20119;48.334;16.206;2024-01-15T08:33:43;30.20;;;16.60;;
33810;SDS011;20119;48.334;16.206;2024-01-15T08:36:11;25.50;;;15.27;;
33810;SDS011;20119;48.334;16.206;2024-01-15T08:38:38;26.13;;;17.00;;
33810;SDS011;20119;48.334;16.206;2024-01-15T08:41:05;25.10;;;15.27;;
33810;SDS011;20119;48.334;16.206;2024-01-15T08:54:09;21.90;;;13.55;;
33810;SDS011;20119;48.334;16.206;2024-01-15T08:56:39;24.23;;;15.05;;
33810;SDS011;20119;48.334;16.206;2024-01-15T09:01:43;21.45;;;14.35;;
33810;SDS011;20119;48.334;16.206;2024-01-15T09:04:11;23.33;;;14.32;;
33810;SDS011;20119;48.334;16.206;2024-01-15T09:06:39;25.42;;;14.55;;
33810;SDS011;20119;48.334;16.206;2024-01-15T09:09:06;21.88;;;13.85;;
33810;SDS011;20119;48.334;16.206;2024-01-15T09:11:35;21.58;;;13.57;;
33810;SDS011;20119;48.334;16.206;2024-01-15T09:14:02;19.30;;;12.57;;
33810;SDS011;20119;48.334;16.206;2024-01-15T09:19:00;19.75;;;12.80;;
33810;SDS011;20119;48.334;16.206;2024-01-15T09:24:04;19.42;;;12.18;;
33810;SDS011;20119;48.334;16.206;2024-01-15T09:26:31;20.10;;;11.63;;
33810;SDS011;20119;48.334;16.206;2024-01-15T09:29:00;16.65;;;10.82;;
33810;SDS011;20119;48.334;16.206;2024-01-15T09:31:28;17.45;;;10.95;;
33810;SDS011;20119;48.334;16.206;2024-01-15T09:33:55;17.30;;;10.63;;
33810;SDS011;20119;48.334;16.206;2024-01-15T09:36:25;14.65;;;9.82;;
33810;SDS011;20119;48.334;16.206;2024-01-15T09:41:28;16.30;;;10.65;;
33810;SDS011;20119;48.334;16.206;2024-01-15T09:43:55;16.02;;;10.88;;
33810;SDS011;20119;48.334;16.206;2024-01-15T09:49:00;16.77;;;10.63;;
33810;SDS011;20119;48.334;16.206;2024-01-15T09:51:28;18.83;;;10.93;;
33810;SDS011;20119;48.334;16.206;2024-01-15T09:56:25;16.38;;;10.82;;
33810;SDS011;20119;48.334;16.206;2024-01-15T10:01:28;17.20;;;11.23;;
33810;SDS011;20119;48.334;16.206;2024-01-15T10:03:56;14.95;;;10.40;;
33810;SDS011;20119;48.334;16.206;2024-01-15T10:06:25;17.98;;;10.52;;
33810;SDS011;20119;48.334;16.206;2024-01-15T10:08:53;16.70;;;11.20;;
33810;SDS011;20119;48.334;16.206;2024-01-15T10:13:57;18.00;;;10.60;;
33810;SDS011;20119;48.334;16.206;2024-01-15T10:19:00;16.85;;;10.98;;
33810;SDS011;20119;48.334;16.206;2024-01-15T10:21:29;17.08;;;11.30;;
33810;SDS011;20119;48.334;16.206;2024-01-15T10:26:35;16.23;;;11.25;;
33810;SDS011;20119;48.334;16.206;2024-01-15T10:29:03;16.00;;;11.02;;
33810;SDS011;20119;48.334;16.206;2024-01-15T10:31:30;17.25;;;10.90;;
33810;SDS011;20119;48.334;16.206;2024-01-15T10:36:34;17.08;;;10.70;;
33810;SDS011;20119;48.334;16.206;2024-01-15T10:39:02;15.40;;;10.30;;
33810;SDS011;20119;48.334;16.206;2024-01-15T10:41:29;16.40;;;10.43;;
33810;SDS011;20119;48.334;16.206;2024-01-15T10:43:56;16.13;;;10.57;;
33810;SDS011;20119;48.334;16.206;2024-01-15T10:46:24;16.50;;;10.70;;
33810;SDS011;20119;48.334;16.206;2024-01-15T10:51:27;14.57;;;9.48;;
33810;SDS011;20119;48.334;16.206;2024-01-15T10:53:57;13.20;;;9.27;;
33810;SDS011;20119;48.334;16.206;2024-01-15T11:01:32;14.88;;;9.75;;
33810;SDS011;20119;48.334;16.206;2024-01-15T11:06:42;14.43;;;9.13;;
33810;SDS011;20119;48.334;16.206;2024-01-15T11:09:11;15.13;;;9.80;;
33810;SDS011;20119;48.334;16.206;2024-01-15T11:11:40;13.95;;;9.07;;
33810;SDS011;20119;48.334;16.206;2024-01-15T11:16:53;14.45;;;9.02;;
33810;SDS011;20119;48.334;16.206;2024-01-15T11:19:21;12.65;;;8.43;;
33810;SDS011;20119;48.334;16.206;2024-01-15T11:21:49;12.70;;;8.52;;
33810;SDS011;20119;48.334;16.206;2024-01-15T11:27:12;12.73;;;8.63;;
33810;SDS011;20119;48.334;16.206;2024-01-15T11:32:15;13.57;;;9.02;;
33810;SDS011;20119;48.334;16.206;2024-01-15T11:37:20;15.25;;;10.15;;
33810;SDS011;20119;48.334;16.206;2024-01-15T11:39:50;15.23;;;10.05;;
33810;SDS011;20119;48.334;16.206;2024-01-15T11:42:20;12.90;;;9.20;;
33810;SDS011;20119;48.334;16.206;2024-01-15T11:52:36;12.98;;;9.32;;
33810;SDS011;20119;48.334;16.206;2024-01-15T11:55:10;13.93;;;9.93;;
33810;SDS011;20119;48.334;16.206;2024-01-15T12:00:16;15.15;;;10.27;;
33810;SDS011;20119;48.334;16.206;2024-01-15T12:07:55;14.48;;;9.77;;
33810;SDS011;20119;48.334;16.206;2024-01-15T12:10:22;16.20;;;9.52;;
33810;SDS011;20119;48.334;16.206;2024-01-15T12:12:55;13.80;;;9.70;;
33810;SDS011;20119;48.334;16.206;2024-01-15T12:20:37;14.23;;;9.70;;
33810;SDS011;20119;48.334;16.206;2024-01-15T12:23:04;13.80;;;10.13;;
33810;SDS011;20119;48.334;16.206;2024-01-15T12:25:32;15.75;;;10.55;;
33810;SDS011;20119;48.334;16.206;2024-01-15T12:28:00;15.38;;;10.73;;
33810;SDS011;20119;48.334;16.206;2024-01-15T12:30:28;14.57;;;10.18;;
33810;SDS011;20119;48.334;16.206;2024-01-15T12:32:56;14.80;;;10.60;;
33810;SDS011;20119;48.334;16.206;2024-01-15T12:35:24;14.20;;;9.65;;
33810;SDS011;20119;48.334;16.206;2024-01-15T12:40:30;14.50;;;9.68;;
33810;SDS011;20119;48.334;16.206;2024-01-15T12:42:58;14.27;;;10.63;;
33810;SDS011;20119;48.334;16.206;2024-01-15T12:48:01;11.57;;;9.02;;
33810;SDS011;20119;48.334;16.206;2024-01-15T12:50:28;12.82;;;8.95;;
33810;SDS011;20119;48.334;16.206;2024-01-15T12:52:56;13.30;;;9.13;;
33810;SDS011;20119;48.334;16.206;2024-01-15T13:00:34;12.25;;;8.65;;
33810;SDS011;20119;48.334;16.206;2024-01-15T13:03:02;12.63;;;8.75;;
33810;SDS011;20119;48.334;16.206;2024-01-15T13:05:29;12.05;;;8.35;;
33810;SDS011;20119;48.334;16.206;2024-01-15T13:07:58;10.07;;;7.78;;
33810;SDS011;20119;48.334;16.206;2024-01-15T13:20:42;11.40;;;8.15;;
33810;SDS011;20119;48.334;16.206;2024-01-15T13:23:11;11.57;;;7.97;;
33810;SDS011;20119;48.334;16.206;2024-01-15T13:25:38;11.50;;;8.40;;
33810;SDS011;20119;48.334;16.206;2024-01-15T13:28:06;11.65;;;8.35;;
33810;SDS011;20119;48.334;16.206;2024-01-15T13:33:10;11.88;;;8.20;;
33810;SDS011;20119;48.334;16.206;2024-01-15T13:35:37;11.50;;;8.15;;
33810;SDS011;20119;48.334;16.206;2024-01-15T13:38:05;11.73;;;7.90;;
33810;SDS011;20119;48.334;16.206;2024-01-15T13:40:34;9.73;;;6.00;;
33810;SDS011;20119;48.334;16.206;2024-01-15T13:43:01;10.73;;;7.82;;
33810;SDS011;20119;48.334;16.206;2024-01-15T13:45:32;11.25;;;8.02;;
33810;SDS011;20119;48.334;16.206;2024-01-15T13:50:35;10.57;;;8.05;;
33810;SDS011;20119;48.334;16.206;2024-01-15T13:53:02;11.43;;;8.18;;
33810;SDS011;20119;48.334;16.206;2024-01-15T14:03:19;11.25;;;7.13;;
33810;SDS011;20119;48.334;16.206;2024-01-15T14:05:46;13.57;;;7.70;;
33810;SDS011;20119;48.334;16.206;2024-01-15T14:08:14;15.98;;;9.02;;
33810;SDS011;20119;48.334;16.206;2024-01-15T14:13:17;12.15;;;7.90;;
33810;SDS011;20119;48.334;16.206;2024-01-15T14:15:45;12.10;;;8.00;;
33810;SDS011;20119;48.334;16.206;2024-01-15T14:18:13;11.70;;;7.57;;
33810;SDS011;20119;48.334;16.206;2024-01-15T14:23:18;11.63;;;7.50;;
33810;SDS011;20119;48.334;16.206;2024-01-15T14:33:33;9.52;;;6.30;;
33810;SDS011;20119;48.334;16.206;2024-01-15T14:41:13;8.07;;;6.22;;
33810;SDS011;20119;48.334;16.206;2024-01-15T14:46:17;8.55;;;6.50;;
33810;SDS011;20119;48.334;16.206;2024-01-15T14:51:21;12.70;;;6.50;;
33810;SDS011;20119;48.334;16.206;2024-01-15T14:53:49;9.07;;;6.18;;
33810;SDS011;20119;48.334;16.206;2024-01-15T14:56:18;9.65;;;6.78;;
33810;SDS011;20119;48.334;16.206;2024-01-15T14:58:45;9.85;;;6.35;;
33810;SDS011;20119;48.334;16.206;2024-01-15T15:01:12;7.90;;;5.80;;
33810;SDS011;20119;48.334;16.206;2024-01-15T15:03:40;9.10;;;6.35;;
33810;SDS011;20119;48.334;16.206;2024-01-15T15:08:43;7.72;;;5.28;;
33810;SDS011;20119;48.334;16.206;2024-01-15T15:11:10;7.82;;;5.90;;
33810;SDS011;20119;48.334;16.206;2024-01-15T15:18:51;7.15;;;5.07;;
33810;SDS011;20119;48.334;16.206;2024-01-15T15:21:20;7.38;;;5.22;;
33810;SDS011;20119;48.334;16.206;2024-01-15T15:23:47;7.47;;;5.40;;
33810;SDS011;20119;48.334;16.206;2024-01-15T15:28:45;8.80;;;5.43;;
33810;SDS011;20119;48.334;16.206;2024-01-15T15:39:01;6.88;;;5.07;;
33810;SDS011;20119;48.334;16.206;2024-01-15T15:44:04;6.95;;;4.95;;
33810;SDS011;20119;48.334;16.206;2024-01-15T15:46:32;7.78;;;4.63;;
33810;SDS011;20119;48.334;16.206;2024-01-15T15:51:35;6.85;;;4.72;;
33810;SDS011;20119;48.334;16.206;2024-01-15T15:54:03;9.35;;;4.60;;
33810;SDS011;20119;48.334;16.206;2024-01-15T15:56:31;8.20;;;4.65;;
33810;SDS011;20119;48.334;16.206;2024-01-15T15:59:03;8.30;;;5.10;;
33810;SDS011;20119;48.334;16.206;2024-01-15T16:01:31;7.97;;;5.28;;
33810;SDS011;20119;48.334;16.206;2024-01-15T16:06:34;7.35;;;5.28;;
33810;SDS011;20119;48.334;16.206;2024-01-15T16:09:01;6.60;;;4.75;;
33810;SDS011;20119;48.334;16.206;2024-01-15T16:11:30;5.90;;;4.35;;
33810;SDS011;20119;48.334;16.206;2024-01-15T16:13:57;7.28;;;4.50;;
33810;SDS011;20119;48.334;16.206;2024-01-15T16:16:25;6.95;;;4.88;;
33810;SDS011;20119;48.334;16.206;2024-01-15T16:24:04;6.93;;;4.88;;
33810;SDS011;20119;48.334;16.206;2024-01-15T16:26:32;7.28;;;4.50;;
33810;SDS011;20119;48.334;16.206;2024-01-15T16:31:36;6.43;;;4.53;;
33810;SDS011;20119;48.334;16.206;2024-01-15T16:34:04;7.47;;;4.40;;
33810;SDS011;20119;48.334;16.206;2024-01-15T16:36:31;6.82;;;4.55;;
33810;SDS011;20119;48.334;16.206;2024-01-15T16:41:36;7.13;;;4.57;;
33810;SDS011;20119;48.334;16.206;2024-01-15T16:44:03;6.22;;;4.43;;
33810;SDS011;20119;48.334;16.206;2024-01-15T16:46:31;7.80;;;4.93;;
33810;SDS011;20119;48.334;16.206;2024-01-15T16:51:44;6.00;;;4.50;;
33810;SDS011;20119;48.334;16.206;2024-01-15T16:54:12;6.97;;;4.45;;
33810;SDS011;20119;48.334;16.206;2024-01-15T16:56:41;4.93;;;3.83;;
33810;SDS011;20119;48.334;16.206;2024-01-15T16:59:09;5.85;;;4.30;;
33810;SDS011;20119;48.334;16.206;2024-01-15T17:01:37;4.82;;;4.00;;
33810;SDS011;20119;48.334;16.206;2024-01-15T17:04:04;5.25;;;3.63;;
33810;SDS011;20119;48.334;16.206;2024-01-15T17:06:31;5.50;;;4.10;;
33810;SDS011;20119;48.334;16.206;2024-01-15T17:11:35;5.57;;;3.95;;
33810;SDS011;20119;48.334;16.206;2024-01-15T17:14:03;5.22;;;3.85;;
33810;SDS011;20119;48.334;16.206;2024-01-15T17:19:15;5.15;;;3.88;;
33810;SDS011;20119;48.334;16.206;2024-01-15T17:21:43;7.20;;;4.40;;
33810;SDS011;20119;48.334;16.206;2024-01-15T17:24:11;5.55;;;4.03;;
33810;SDS011;20119;48.334;16.206;2024-01-15T17:31:51;6.70;;;4.47;;
33810;SDS011;20119;48.334;16.206;2024-01-15T17:34:19;6.20;;;4.50;;
33810;SDS011;20119;48.334;16.206;2024-01-15T17:47:10;6.45;;;4.38;;
33810;SDS011;20119;48.334;16.206;2024-01-15T17:49:38;5.70;;;4.47;;
33810;SDS011;20119;48.334;16.206;2024-01-15T17:54:33;5.40;;;4.18;;
33810;SDS011;20119;48.334;16.206;2024-01-15T17:59:31;5.32;;;4.53;;
33810;SDS011;20119;48.334;16.206;2024-01-15T18:01:58;5.55;;;4.72;;
33810;SDS011;20119;48.334;16.206;2024-01-15T18:04:27;6.82;;;5.32;;
33810;SDS011;20119;48.334;16.206;2024-01-15T18:06:54;7.00;;;5.20;;
33810;SDS011;20119;48.334;16.206;2024-01-15T18:09:22;6.38;;;4.70;;
33810;SDS011;20119;48.334;16.206;2024-01-15T18:11:49;6.82;;;5.00;;
33810;SDS011;20119;48.334;16.206;2024-01-15T18:16:54;5.70;;;4.53;;
33810;SDS011;20119;48.334;16.206;2024-01-15T18:19:22;5.60;;;4.50;;
33810;SDS011;20119;48.334;16.206;2024-01-15T18:21:51;5.45;;;4.03;;
33810;SDS011;20119;48.334;16.206;2024-01-15T18:24:18;8.38;;;4.45;;
33810;SDS011;20119;48.334;16.206;2024-01-15T18:26:46;6.68;;;5.07;;
33810;SDS011;20119;48.334;16.206;2024-01-15T18:29:14;5.15;;;4.25;;
33810;SDS011;20119;48.334;16.206;2024-01-15T18:34:19;4.35;;;3.95;;
33810;SDS011;20119;48.334;16.206;2024-01-15T18:44:30;4.63;;;3.78;;
33810;SDS011;20119;48.334;16.206;2024-01-15T18:49:33;8.40;;;4.00;;
33810;SDS011;20119;48.334;16.206;2024-01-15T18:54:37;5.45;;;4.18;;
33810;SDS011;20119;48.334;16.206;2024-01-15T18:57:04;6.03;;;3.97;;
33810;SDS011;20119;48.334;16.206;2024-01-15T18:59:33;4.15;;;3.42;;
33810;SDS011;20119;48.334;16.206;2024-01-15T19:02:02;3.80;;;3.37;;
33810;SDS011;20119;48.334;16.206;2024-01-15T19:12:14;4.65;;;3.15;;
33810;SDS011;20119;48.334;16.206;2024-01-15T19:14:42;6.68;;;3.90;;
33810;SDS011;20119;48.334;16.206;2024-01-15T19:17:09;3.83;;;3.30;;
33810;SDS011;20119;48.334;16.206;2024-01-15T19:22:12;4.43;;;3.75;;
33810;SDS011;20119;48.334;16.206;2024-01-15T19:29:47;4.65;;;3.20;;
33810;SDS011;20119;48.334;16.206;2024-01-15T19:34:50;3.10;;;2.70;;
33810;SDS011;20119;48.334;16.206;2024-01-15T19:37:18;3.45;;;2.90;;
33810;SDS011;20119;48.334;16.206;2024-01-15T19:42:21;4.53;;;3.25;;
33810;SDS011;20119;48.334;16.206;2024-01-15T19:44:50;4.00;;;2.92;;
33810;SDS011;20119;48.334;16.206;2024-01-15T19:49:53;3.97;;;2.88;;
33810;SDS011;20119;48.334;16.206;2024-01-15T19:52:20;4.00;;;3.30;;
33810;SDS011;20119;48.334;16.206;2024-01-15T19:54:48;4.93;;;3.20;;
33810;SDS011;20119;48.334;16.206;2024-01-15T19:57:15;5.60;;;3.35;;
33810;SDS011;20119;48.334;16.206;2024-01-15T19:59:43;4.53;;;3.50;;
33810;SDS011;20119;48.334;16.206;2024-01-15T20:02:14;4.30;;;3.60;;
33810;SDS011;20119;48.334;16.206;2024-01-15T20:15:05;4.90;;;3.35;;
33810;SDS011;20119;48.334;16.206;2024-01-15T20:17:34;4.13;;;3.20;;
33810;SDS011;20119;48.334;16.206;2024-01-15T20:30:24;3.92;;;3.45;;
33810;SDS011;20119;48.334;16.206;2024-01-15T20:32:53;4.68;;;4.00;;
33810;SDS011;20119;48.334;16.206;2024-01-15T20:35:21;6.22;;;4.38;;
33810;SDS011;20119;48.334;16.206;2024-01-15T20:48:13;6.82;;;5.68;;
33810;SDS011;20119;48.334;16.206;2024-01-15T20:50:40;6.47;;;5.30;;
33810;SDS011;20119;48.334;16.206;2024-01-15T20:53:07;6.63;;;5.25;;
33810;SDS011;20119;48.334;16.206;2024-01-15T20:55:35;6.63;;;5.22;;
33810;SDS011;20119;48.334;16.206;2024-01-15T20:58:02;6.65;;;5.22;;
33810;SDS011;20119;48.334;16.206;2024-01-15T21:00:31;6.55;;;5.10;;
33810;SDS011;20119;48.334;16.206;2024-01-15T21:02:58;7.13;;;5.53;;
33810;SDS011;20119;48.334;16.206;2024-01-15T21:05:27;7.68;;;5.80;;
33810;SDS011;20119;48.334;16.206;2024-01-15T21:07:55;7.18;;;5.80;;
33810;SDS011;20119;48.334;16.206;2024-01-15T21:10:22;6.65;;;5.93;;
33810;SDS011;20119;48.334;16.206;2024-01-15T21:12:50;7.10;;;6.15;;
33810;SDS011;20119;48.334;16.206;2024-01-15T21:15:17;7.43;;;6.15;;
33810;SDS011;20119;48.334;16.206;2024-01-15T21:17:44;7.97;;;6.45;;
33810;SDS011;20119;48.334;16.206;2024-01-15T21:20:12;7.88;;;6.53;;
33810;SDS011;20119;48.334;16.206;2024-01-15T21:22:40;8.88;;;6.68;;
33810;SDS011;20119;48.334;16.206;2024-01-15T21:25:08;8.80;;;6.78;;
33810;SDS011;20119;48.334;16.206;2024-01-15T21:27:36;8.10;;;5.85;;
33810;SDS011;20119;48.334;16.206;2024-01-15T21:32:43;8.55;;;6.82;;
33810;SDS011;20119;48.334;16.206;2024-01-15T21:35:30;11.05;;;6.75;;
33810;SDS011;20119;48.334;16.206;2024-01-15T21:37:59;9.70;;;6.70;;
33810;SDS011;20119;48.334;16.206;2024-01-15T21:50:39;7.47;;;5.78;;
33810;SDS011;20119;48.334;16.206;2024-01-15T21:53:07;8.43;;;6.20;;